Angola, New York
Current Conditions -  °F | °C
As of 12:53 AM on Sunday 26 Oct 2014 (Local Time) from KDKK Reporting Station
Overcast Overcast  
Wind Chill: 12°   Ceiling: 7500
Heat Index: 12°   Visibility: 10mi
Dew Point:   Wind: 10mph
Humidity: 64%   Direction: 270°W
Pressure: 29.7"   Gusts: 17mph
Location:  42.64°N, 79.03°W
Report Text: KDKK 260453Z AUTO 27009G15KT 10SM OVC075 12/05 A2970 RMK AO2 SLP058 T01170050 401890100
Loading
Personal Weather Stations






























Interactive Weather Map
Tropical Storm Tracking
New forecast layout! Learn more

10-Day Weather Forecast

Advertisements
Track Severe Weather on mobile